createdAt,value
2018-08-28T00:01:53.470Z,2.47
2018-08-28T00:04:21.962Z,2.10
2018-08-28T00:06:50.446Z,2.03
2018-08-28T00:09:18.914Z,2.37
2018-08-28T00:11:47.407Z,2.53
2018-08-28T00:14:15.871Z,2.23
2018-08-28T00:16:44.337Z,3.00
2018-08-28T00:19:12.903Z,2.00
2018-08-28T00:21:41.375Z,2.53
2018-08-28T00:24:09.824Z,2.40
2018-08-28T00:26:38.286Z,2.23
2018-08-28T00:29:06.775Z,2.17
2018-08-28T00:31:35.228Z,2.97
2018-08-28T00:34:03.983Z,2.60
2018-08-28T00:36:32.499Z,2.40
2018-08-28T00:39:01.011Z,2.37
2018-08-28T00:41:29.491Z,2.50
2018-08-28T00:43:57.954Z,2.40
2018-08-28T00:46:26.424Z,3.03
2018-08-28T00:48:54.882Z,2.40
2018-08-28T00:51:23.351Z,2.40
2018-08-28T00:53:51.852Z,2.50
2018-08-28T00:56:20.335Z,2.30
2018-08-28T00:58:48.872Z,2.37
2018-08-28T01:01:17.358Z,2.73
2018-08-28T01:03:45.834Z,2.33
2018-08-28T01:06:14.303Z,2.47
2018-08-28T01:08:42.835Z,2.80
2018-08-28T01:11:11.306Z,2.57
2018-08-28T01:13:39.763Z,2.57
2018-08-28T01:16:08.247Z,2.40
2018-08-28T01:18:36.739Z,2.63
2018-08-28T01:21:05.275Z,1.87
2018-08-28T01:23:33.935Z,2.53
2018-08-28T01:26:02.467Z,2.40
2018-08-28T01:28:31.007Z,2.40
2018-08-28T01:30:59.498Z,2.43
2018-08-28T01:33:27.960Z,2.40
2018-08-28T01:35:56.430Z,2.33
2018-08-28T01:38:24.888Z,2.33
2018-08-28T01:40:53.359Z,2.77
2018-08-28T01:43:22.823Z,2.00
2018-08-28T01:45:51.763Z,3.27
2018-08-28T01:48:20.243Z,2.40
2018-08-28T01:50:48.859Z,2.63
2018-08-28T01:53:17.334Z,2.33
2018-08-28T01:55:45.798Z,2.27
2018-08-28T01:58:14.283Z,2.60
2018-08-28T02:00:42.746Z,2.20
2018-08-28T02:03:11.237Z,2.40
2018-08-28T02:05:39.691Z,2.47
2018-08-28T02:08:08.187Z,2.30
2018-08-28T02:10:36.655Z,2.33
2018-08-28T02:13:05.183Z,2.30
2018-08-28T02:15:33.739Z,1.87
2018-08-28T02:18:02.199Z,2.50
2018-08-28T02:20:30.671Z,2.70
2018-08-28T02:22:59.158Z,2.20
2018-08-28T02:25:27.723Z,2.27
2018-08-28T02:27:56.191Z,2.20
2018-08-28T02:30:24.666Z,2.67
2018-08-28T02:32:53.151Z,2.37
2018-08-28T02:35:21.619Z,2.60
2018-08-28T02:37:50.083Z,2.30
2018-08-28T02:40:18.576Z,2.30
2018-08-28T02:42:47.042Z,3.20
2018-08-28T02:45:15.517Z,2.27
2018-08-28T02:47:43.974Z,1.87
2018-08-28T02:50:12.446Z,2.87
2018-08-28T02:52:40.927Z,2.00
2018-08-28T02:55:09.470Z,2.83
2018-08-28T02:57:37.947Z,2.80
2018-08-28T03:00:06.474Z,2.10
2018-08-28T03:02:34.942Z,2.20
2018-08-28T03:05:03.503Z,2.10
2018-08-28T03:07:32.015Z,2.10
2018-08-28T03:10:00.491Z,2.50
2018-08-28T03:12:28.959Z,2.80
2018-08-28T03:14:57.435Z,2.70
2018-08-28T03:17:25.934Z,2.57
2018-08-28T03:19:54.418Z,2.47
2018-08-28T03:22:22.899Z,2.50
2018-08-28T03:24:51.387Z,2.50
2018-08-28T03:27:19.921Z,2.23
2018-08-28T03:29:48.379Z,3.10
2018-08-28T03:32:16.839Z,2.60
2018-08-28T03:34:45.303Z,2.53
2018-08-28T03:37:13.783Z,2.67
2018-08-28T03:39:42.230Z,2.63
2018-08-28T03:42:10.696Z,2.80
2018-08-28T03:44:39.182Z,3.07
2018-08-28T03:47:07.642Z,2.70
2018-08-28T03:49:36.120Z,2.37
2018-08-28T03:52:04.727Z,2.43
2018-08-28T03:54:33.234Z,1.97
2018-08-28T03:57:01.698Z,2.40
2018-08-28T03:59:30.150Z,2.00
2018-08-28T04:01:58.638Z,2.33
2018-08-28T04:04:27.199Z,2.83
2018-08-28T04:06:55.668Z,2.50
2018-08-28T04:09:24.120Z,2.50
2018-08-28T04:11:52.580Z,2.50
2018-08-28T04:14:21.071Z,2.50
2018-08-28T04:16:49.523Z,2.63
2018-08-28T04:19:18.015Z,2.17
2018-08-28T04:21:46.481Z,2.67
2018-08-28T04:24:14.947Z,2.23
2018-08-28T04:26:43.415Z,2.43
2018-08-28T04:29:11.887Z,2.90
2018-08-28T04:31:40.355Z,2.60
2018-08-28T04:34:08.805Z,2.97
2018-08-28T04:36:37.276Z,3.37
2018-08-28T04:39:07.031Z,3.40
2018-08-28T04:41:35.490Z,3.70
2018-08-28T04:44:03.965Z,2.80
2018-08-28T04:46:50.776Z,2.50
2018-08-28T04:49:19.252Z,2.80
2018-08-28T04:54:37.334Z,2.73
2018-08-28T04:59:58.711Z,3.07
2018-08-28T05:46:29.503Z,2.37
2018-08-28T06:06:31.137Z,2.87
2018-08-28T06:09:00.434Z,2.67
2018-08-28T06:20:29.243Z,1.70
2018-08-28T06:23:45.855Z,1.77
2018-08-28T06:26:33.210Z,1.83
2018-08-28T06:39:25.919Z,2.00
2018-08-28T06:42:00.095Z,2.50
2018-08-28T06:44:28.570Z,2.47
2018-08-28T06:49:49.723Z,2.60
2018-08-28T06:52:35.578Z,2.70
2018-08-28T06:55:21.295Z,2.80
2018-08-28T07:02:01.678Z,3.13
2018-08-28T07:04:30.149Z,3.13
2018-08-28T07:09:51.398Z,3.20
2018-08-28T07:15:19.533Z,2.90
2018-08-28T07:17:48.036Z,2.80
2018-08-28T07:20:39.532Z,2.67
2018-08-28T07:23:29.241Z,3.30
2018-08-28T07:28:50.687Z,3.07
2018-08-28T07:31:19.220Z,2.80
2018-08-28T07:33:47.658Z,3.13
2018-08-28T07:36:21.640Z,3.63
2018-08-28T07:38:54.166Z,3.53
2018-08-28T07:44:40.601Z,3.27
2018-08-28T07:47:29.164Z,3.07
2018-08-28T07:50:17.143Z,2.50
2018-08-28T08:06:54.830Z,2.50
2018-08-28T08:09:23.291Z,3.30
2018-08-28T08:11:58.754Z,2.60
2018-08-28T08:14:27.334Z,2.60
2018-08-28T08:21:29.043Z,2.57
2018-08-28T08:23:57.503Z,2.20
2018-08-28T08:29:18.943Z,2.07
2018-08-28T08:34:40.094Z,2.17
2018-08-28T08:37:26.838Z,2.10
2018-08-28T08:39:55.315Z,2.57
2018-08-28T08:42:23.914Z,2.50
2018-08-28T08:45:00.196Z,2.03
2018-08-28T08:47:42.599Z,2.10
2018-08-28T08:56:32.982Z,2.07
2018-08-28T08:59:11.759Z,1.90
2018-08-28T09:01:40.222Z,1.80
2018-08-28T09:04:08.683Z,1.77
2018-08-28T09:07:01.342Z,1.80
2018-08-28T09:09:30.023Z,1.73
2018-08-28T09:14:51.695Z,1.90
2018-08-28T09:17:20.229Z,2.47
2018-08-28T09:19:48.694Z,2.20
2018-08-28T09:25:19.014Z,2.03
2018-08-28T09:27:47.472Z,1.90
2018-08-28T09:33:16.958Z,1.60
2018-08-28T09:38:36.129Z,1.93
2018-08-28T09:43:57.626Z,2.00
2018-08-28T09:46:26.038Z,2.20
2018-08-28T09:48:54.507Z,1.70
2018-08-28T09:51:22.972Z,2.20
2018-08-28T09:53:51.450Z,1.40
2018-08-28T09:56:19.947Z,1.60
2018-08-28T09:58:48.454Z,2.00
2018-08-28T10:01:22.142Z,1.60
2018-08-28T10:03:50.608Z,1.93
2018-08-28T10:06:19.084Z,2.13
2018-08-28T10:08:47.589Z,2.17
2018-08-28T10:11:16.090Z,1.70
2018-08-28T10:13:44.555Z,1.70
2018-08-28T10:16:13.015Z,1.80
2018-08-28T10:18:41.523Z,2.10
2018-08-28T10:21:09.991Z,2.10
2018-08-28T10:23:38.451Z,1.97
2018-08-28T10:26:06.967Z,1.83
2018-08-28T10:28:35.435Z,2.20
2018-08-28T10:31:04.170Z,1.43
2018-08-28T10:33:32.631Z,1.87
2018-08-28T10:36:01.088Z,1.80
2018-08-28T10:38:29.569Z,1.97
2018-08-28T10:40:58.034Z,1.70
2018-08-28T10:43:26.500Z,1.70
2018-08-28T10:45:55.059Z,1.73
2018-08-28T10:48:23.563Z,1.90
2018-08-28T10:50:52.059Z,1.57
2018-08-28T10:53:20.522Z,1.70
2018-08-28T10:55:48.987Z,1.90
2018-08-28T10:58:17.503Z,2.17
2018-08-28T11:00:46.011Z,1.97
2018-08-28T11:03:14.571Z,1.87
2018-08-28T11:05:43.034Z,1.80
2018-08-28T11:08:11.510Z,1.60
2018-08-28T11:10:40.031Z,1.97
2018-08-28T11:13:08.707Z,1.73
2018-08-28T11:15:37.227Z,2.87
2018-08-28T11:18:05.987Z,2.27
2018-08-28T11:20:34.482Z,1.93
2018-08-28T11:23:03.014Z,2.00
2018-08-28T11:25:31.600Z,2.00
2018-08-28T11:28:00.171Z,2.73
2018-08-28T11:30:29.038Z,2.50
2018-08-28T11:32:57.551Z,2.10
2018-08-28T11:35:26.046Z,2.50
2018-08-28T11:37:54.504Z,2.33
2018-08-28T11:40:23.018Z,1.97
2018-08-28T11:42:51.485Z,2.23
2018-08-28T11:45:19.982Z,2.07
2018-08-28T11:47:48.458Z,1.87
2018-08-28T11:50:16.931Z,2.50
2018-08-28T11:52:45.439Z,2.07
2018-08-28T11:55:13.895Z,2.50
2018-08-28T11:57:42.379Z,2.20
2018-08-28T12:00:11.113Z,1.90
2018-08-28T12:02:39.574Z,2.53
2018-08-28T12:05:08.168Z,2.50
2018-08-28T12:07:36.606Z,2.50
2018-08-28T12:10:05.835Z,2.30
2018-08-28T12:12:34.303Z,1.80
2018-08-28T12:15:03.371Z,2.10
2018-08-28T12:17:31.879Z,2.10
2018-08-28T12:20:00.399Z,1.80
2018-08-28T12:22:28.878Z,2.43
2018-08-28T12:24:57.353Z,2.37
2018-08-28T12:27:25.822Z,2.47
2018-08-28T12:29:54.286Z,2.10
2018-08-28T12:32:22.755Z,2.30
2018-08-28T12:34:51.247Z,2.23
2018-08-28T12:37:19.704Z,2.33
2018-08-28T12:39:48.191Z,2.63
2018-08-28T12:42:16.722Z,2.10
2018-08-28T12:44:45.201Z,2.20
2018-08-28T12:47:13.663Z,2.40
2018-08-28T12:49:42.125Z,2.60
2018-08-28T12:52:10.606Z,2.40
2018-08-28T12:54:39.075Z,2.33
2018-08-28T12:57:07.542Z,2.50
2018-08-28T12:59:36.068Z,1.70
2018-08-28T13:02:04.650Z,2.43
2018-08-28T13:04:33.135Z,2.33
2018-08-28T13:07:01.652Z,2.30
2018-08-28T13:09:30.118Z,2.50
2018-08-28T13:11:58.587Z,2.27
2018-08-28T13:14:27.070Z,2.40
2018-08-28T13:16:55.531Z,2.10
2018-08-28T13:19:24.004Z,2.50
2018-08-28T13:21:52.474Z,2.40
2018-08-28T13:24:20.959Z,2.73
2018-08-28T13:26:49.431Z,2.33
2018-08-28T13:29:17.910Z,2.57
2018-08-28T13:31:46.390Z,2.57
2018-08-28T13:34:14.839Z,2.23
2018-08-28T13:36:43.310Z,2.40
2018-08-28T13:39:11.783Z,2.57
2018-08-28T13:41:40.280Z,2.67
2018-08-28T13:44:08.743Z,2.57
2018-08-28T13:46:37.214Z,2.80
2018-08-28T13:49:05.771Z,2.63
2018-08-28T13:51:34.597Z,2.60
2018-08-28T13:54:03.124Z,2.10
2018-08-28T13:56:31.571Z,2.20
2018-08-28T13:59:00.063Z,2.70
2018-08-28T14:01:28.527Z,2.63
2018-08-28T14:03:56.993Z,2.63
2018-08-28T14:06:28.523Z,2.20
2018-08-28T14:08:57.048Z,2.53
2018-08-28T14:11:25.512Z,2.57
2018-08-28T14:13:54.090Z,3.03
2018-08-28T14:16:22.456Z,2.90
2018-08-28T14:18:50.943Z,2.33
2018-08-28T14:21:19.419Z,2.73
2018-08-28T14:23:47.884Z,2.70
2018-08-28T14:26:16.390Z,3.03
2018-08-28T14:28:44.901Z,3.00
2018-08-28T14:31:13.390Z,2.40
2018-08-28T14:33:41.855Z,2.23
2018-08-28T14:36:10.357Z,2.00
2018-08-28T14:38:38.838Z,2.77
2018-08-28T14:41:07.331Z,2.20
2018-08-28T14:43:35.794Z,2.30
2018-08-28T14:46:04.287Z,2.87
2018-08-28T14:48:32.825Z,2.27
2018-08-28T14:51:01.296Z,2.67
2018-08-28T14:53:29.789Z,2.80
2018-08-28T14:55:58.274Z,2.20
2018-08-28T14:58:26.756Z,2.60
2018-08-28T15:00:55.242Z,2.47
2018-08-28T15:03:23.718Z,2.17
2018-08-28T15:05:52.218Z,2.80
2018-08-28T15:08:20.696Z,3.00
2018-08-28T15:10:49.151Z,2.50
2018-08-28T15:13:17.670Z,3.00
2018-08-28T15:15:46.163Z,2.47
2018-08-28T15:18:14.656Z,2.70
2018-08-28T15:20:43.123Z,2.90
2018-08-28T15:23:11.592Z,3.07
2018-08-28T15:25:40.154Z,2.80
2018-08-28T15:28:08.661Z,2.53
2018-08-28T15:30:37.140Z,2.47
2018-08-28T15:33:05.643Z,2.50
2018-08-28T15:35:34.219Z,2.70
2018-08-28T15:38:02.691Z,3.20
2018-08-28T15:40:31.150Z,3.03
2018-08-28T15:42:59.634Z,3.00
2018-08-28T15:45:28.130Z,3.30
2018-08-28T15:47:56.626Z,2.53
2018-08-28T15:50:25.099Z,3.40
2018-08-28T15:52:53.655Z,3.13
2018-08-28T15:55:22.163Z,3.33
2018-08-28T15:57:50.650Z,2.97
2018-08-28T16:00:19.163Z,3.10
2018-08-28T16:02:47.619Z,2.93
2018-08-28T16:05:16.099Z,3.10
2018-08-28T16:07:44.651Z,2.40
2018-08-28T16:10:13.130Z,2.77
2018-08-28T16:12:41.620Z,2.87
2018-08-28T16:15:10.152Z,2.37
2018-08-28T16:17:38.616Z,3.00
2018-08-28T16:20:07.363Z,3.00
2018-08-28T16:22:40.031Z,2.80
2018-08-28T16:25:08.582Z,3.20
2018-08-28T16:27:37.078Z,3.20
2018-08-28T16:30:05.705Z,2.47
2018-08-28T16:32:34.254Z,2.70
2018-08-28T16:35:03.044Z,2.87
2018-08-28T16:37:31.572Z,3.07
2018-08-28T16:40:00.055Z,2.90
2018-08-28T16:42:28.526Z,3.60
2018-08-28T16:44:56.992Z,2.90
2018-08-28T16:47:25.455Z,3.80
2018-08-28T16:49:53.923Z,2.50
2018-08-28T16:52:22.383Z,2.80
2018-08-28T16:54:50.838Z,2.77
2018-08-28T16:57:19.334Z,3.33
2018-08-28T16:59:47.827Z,3.27
2018-08-28T17:02:16.288Z,2.80
2018-08-28T17:04:44.752Z,2.97
2018-08-28T17:07:13.265Z,3.10
2018-08-28T17:09:41.699Z,3.07
2018-08-28T17:12:10.280Z,3.00
2018-08-28T17:14:38.787Z,3.50
2018-08-28T17:17:07.259Z,2.87
2018-08-28T17:19:35.722Z,2.90
2018-08-28T17:22:04.203Z,3.10
2018-08-28T17:24:32.732Z,3.60
2018-08-28T17:27:01.210Z,3.37
2018-08-28T17:29:29.724Z,3.73
2018-08-28T17:31:58.242Z,3.57
2018-08-28T17:34:26.721Z,3.53
2018-08-28T17:36:55.235Z,3.03
2018-08-28T17:39:23.722Z,3.30
2018-08-28T17:41:52.194Z,3.50
2018-08-28T17:44:20.686Z,3.43
2018-08-28T17:46:49.167Z,3.70
2018-08-28T17:49:17.703Z,3.20
2018-08-28T17:51:46.841Z,3.70
2018-08-28T17:54:15.800Z,3.70
2018-08-28T17:56:44.745Z,4.30
2018-08-28T17:59:13.299Z,3.17
2018-08-28T18:01:41.798Z,4.10
2018-08-28T18:04:10.363Z,3.33
2018-08-28T18:06:38.838Z,2.87
2018-08-28T18:09:07.764Z,4.07
2018-08-28T18:11:36.383Z,3.57
2018-08-28T18:14:04.983Z,4.53
2018-08-28T18:16:33.668Z,4.10
2018-08-28T18:19:03.395Z,3.57
2018-08-28T18:21:32.143Z,3.60
2018-08-28T18:24:01.193Z,4.47
2018-08-28T18:26:29.729Z,4.20
2018-08-28T18:28:58.419Z,4.00
2018-08-28T18:31:26.846Z,3.87
2018-08-28T18:33:55.448Z,3.43
2018-08-28T18:36:23.996Z,4.73
2018-08-28T18:38:52.622Z,4.33
2018-08-28T18:41:21.192Z,4.00
2018-08-28T18:43:49.876Z,4.57
2018-08-28T18:46:18.716Z,3.50
2018-08-28T18:48:47.219Z,4.20
2018-08-28T18:51:15.733Z,4.93
2018-08-28T18:53:44.199Z,4.33
2018-08-28T18:56:12.735Z,4.20
2018-08-28T18:58:41.151Z,3.93
2018-08-28T19:01:10.510Z,4.20
2018-08-28T19:03:38.999Z,5.03
2018-08-28T19:06:07.491Z,4.20
2018-08-28T19:08:36.088Z,4.20
2018-08-28T19:11:04.628Z,4.10
2018-08-28T19:13:33.114Z,4.47
2018-08-28T19:16:01.684Z,4.40
2018-08-28T19:18:30.230Z,4.47
2018-08-28T19:20:58.785Z,4.30
2018-08-28T19:23:27.294Z,4.10
2018-08-28T19:25:55.832Z,4.43
2018-08-28T19:28:24.297Z,4.53
2018-08-28T19:30:52.745Z,3.80
2018-08-28T19:33:21.218Z,3.80
2018-08-28T19:35:49.759Z,4.13
2018-08-28T19:38:18.243Z,4.63
2018-08-28T19:40:46.829Z,4.30
2018-08-28T19:43:15.384Z,4.27
2018-08-28T19:45:44.163Z,4.20
2018-08-28T19:48:12.750Z,4.90
2018-08-28T19:50:41.233Z,4.90
2018-08-28T19:53:09.739Z,5.00
2018-08-28T19:55:38.214Z,4.73
2018-08-28T19:58:06.736Z,4.20
2018-08-28T20:00:35.175Z,4.80
2018-08-28T20:03:03.664Z,3.93
2018-08-28T20:05:32.277Z,4.60
2018-08-28T20:08:00.770Z,4.10
2018-08-28T20:10:29.247Z,4.60
2018-08-28T20:12:57.739Z,4.60
2018-08-28T20:15:26.227Z,5.33
2018-08-28T20:17:54.852Z,4.30
2018-08-28T20:20:23.183Z,4.97
2018-08-28T20:22:51.695Z,3.67
2018-08-28T20:25:20.181Z,4.80
2018-08-28T20:27:48.659Z,4.17
2018-08-28T20:30:17.161Z,4.40
2018-08-28T20:32:45.623Z,4.17
2018-08-28T20:35:14.095Z,4.50
2018-08-28T20:37:42.570Z,5.07
2018-08-28T20:40:11.733Z,4.70
2018-08-28T20:42:40.207Z,4.20
2018-08-28T20:45:08.691Z,3.60
2018-08-28T20:47:37.155Z,4.17
2018-08-28T20:50:05.995Z,4.67
2018-08-28T20:52:34.506Z,4.00
2018-08-28T20:55:03.019Z,4.23
2018-08-28T20:57:31.483Z,3.87
2018-08-28T20:59:59.955Z,4.30
2018-08-28T21:02:28.427Z,4.50
2018-08-28T21:04:56.929Z,4.23
2018-08-28T21:07:25.443Z,4.80
2018-08-28T21:09:53.886Z,3.90
2018-08-28T21:12:22.355Z,4.40
2018-08-28T21:14:50.839Z,3.87
2018-08-28T21:17:19.307Z,3.87
2018-08-28T21:19:47.768Z,4.50
2018-08-28T21:22:16.244Z,4.43
2018-08-28T21:24:44.714Z,4.67
2018-08-28T21:27:13.195Z,4.30
2018-08-28T21:29:41.655Z,3.97
2018-08-28T21:32:10.238Z,4.17
2018-08-28T21:34:38.694Z,4.33
2018-08-28T21:37:07.227Z,4.07
2018-08-28T21:39:35.692Z,4.17
2018-08-28T21:42:04.157Z,4.60
2018-08-28T21:44:32.650Z,4.33
2018-08-28T21:47:01.183Z,4.40
2018-08-28T21:49:29.654Z,4.20
2018-08-28T21:51:58.125Z,3.93
2018-08-28T21:54:26.593Z,5.20
2018-08-28T21:56:55.083Z,4.70
2018-08-28T21:59:23.571Z,4.17
2018-08-28T22:01:52.042Z,4.40
2018-08-28T22:04:20.519Z,4.10
2018-08-28T22:06:54.343Z,4.73
2018-08-28T22:09:22.784Z,4.63
2018-08-28T22:11:51.243Z,4.30
2018-08-28T22:14:19.767Z,4.50
2018-08-28T22:16:48.230Z,4.80
2018-08-28T22:19:16.719Z,5.10
2018-08-28T22:21:45.190Z,5.40
2018-08-28T22:24:13.665Z,4.40
2018-08-28T22:26:42.170Z,4.57
2018-08-28T22:29:10.656Z,4.50
2018-08-28T22:31:39.156Z,4.77
2018-08-28T22:34:07.628Z,4.57
2018-08-28T22:36:36.104Z,4.20
2018-08-28T22:39:05.598Z,5.43
2018-08-28T22:41:34.167Z,4.17
2018-08-28T22:44:02.668Z,4.87
2018-08-28T22:46:31.199Z,4.27
2018-08-28T22:48:59.703Z,5.00
2018-08-28T22:51:28.168Z,5.10
2018-08-28T22:53:56.627Z,4.57
2018-08-28T22:56:25.092Z,5.10
2018-08-28T22:58:53.556Z,4.70
2018-08-28T23:01:22.039Z,4.70
2018-08-28T23:03:50.499Z,4.90
2018-08-28T23:06:18.991Z,5.67
2018-08-28T23:08:47.452Z,4.73
2018-08-28T23:11:15.920Z,4.70
2018-08-28T23:13:44.383Z,4.60
2018-08-28T23:16:12.859Z,5.33
2018-08-28T23:18:41.354Z,4.80
2018-08-28T23:21:09.843Z,4.70
2018-08-28T23:23:38.328Z,5.43
2018-08-28T23:26:06.858Z,4.70
2018-08-28T23:28:35.334Z,4.63
2018-08-28T23:31:03.820Z,4.27
2018-08-28T23:33:32.335Z,4.13
2018-08-28T23:36:00.810Z,4.40
2018-08-28T23:38:29.282Z,4.80
2018-08-28T23:40:57.738Z,5.23
2018-08-28T23:43:26.210Z,4.67
2018-08-28T23:45:54.692Z,4.60
2018-08-28T23:48:23.152Z,4.70
2018-08-28T23:50:51.616Z,4.80
2018-08-28T23:53:20.100Z,5.50
2018-08-28T23:55:48.571Z,4.87
2018-08-28T23:58:17.017Z,4.70
